Time;durP1;ratioP1;P1;durP2;ratioP2;P2;SDS_P1;SDS_P2;PMS_P1;PMS_P2;Temp;Humidity;BMP_temperature;BMP_pressure;BME280_temperature;BME280_humidity;BME280_pressure;Samples;Min_cycle;Max_cycle;Signal;HPM_P1;HPM_P2
2022/07/08 00:01:02;;;;;;;32.05;5.03;;;;;;;;;;5029611;28;20747;-85
2022/07/08 00:03:30;;;;;;;34.80;5.82;;;;;;;;;;5045603;28;20076;-85
2022/07/08 00:05:57;;;;;;;26.63;6.03;;;;;;;;;;5029803;28;20068;-85
2022/07/08 00:08:26;;;;;;;38.83;8.02;;;;;;;;;;5039534;28;20076;-84
2022/07/08 00:10:54;;;;;;;45.13;6.20;;;;;;;;;;5032096;28;20057;-84
2022/07/08 00:13:22;;;;;;;25.80;4.90;;;;;;;;;;5034305;28;20088;-86
2022/07/08 00:15:49;;;;;;;37.28;5.18;;;;;;;;;;5042334;28;20076;-85
2022/07/08 00:18:17;;;;;;;29.52;5.25;;;;;;;;;;5019600;28;20049;-85
2022/07/08 00:20:44;;;;;;;43.72;5.72;;;;;;;;;;5029615;28;20053;-86
2022/07/08 00:23:11;;;;;;;37.67;5.55;;;;;;;;;;5030607;28;20128;-86
2022/07/08 00:25:39;;;;;;;36.15;6.38;;;;;;;;;;5031461;28;20111;-86
2022/07/08 00:28:06;;;;;;;30.13;5.32;;;;;;;;;;5031356;28;20755;-85
2022/07/08 00:30:33;;;;;;;36.60;5.53;;;;;;;;;;5028877;28;20172;-85
2022/07/08 00:33:00;;;;;;;30.98;4.88;;;;;;;;;;5028494;28;20072;-85
2022/07/08 00:35:28;;;;;;;33.92;6.00;;;;;;;;;;5027344;28;20091;-84
2022/07/08 00:37:56;;;;;;;31.55;6.10;;;;;;;;;;5027205;28;20076;-85
2022/07/08 00:40:23;;;;;;;26.55;5.68;;;;;;;;;;5032619;28;20050;-85
2022/07/08 00:42:50;;;;;;;45.38;6.15;;;;;;;;;;5031228;28;20080;-84
2022/07/08 00:45:18;;;;;;;36.35;6.22;;;;;;;;;;5034162;28;20088;-84
2022/07/08 00:47:46;;;;;;;30.05;5.65;;;;;;;;;;5029324;28;20451;-85
2022/07/08 00:50:13;;;;;;;26.40;4.68;;;;;;;;;;5038198;28;20096;-84
2022/07/08 00:52:41;;;;;;;42.50;6.13;;;;;;;;;;5031212;28;20111;-85
2022/07/08 00:55:09;;;;;;;27.00;5.78;;;;;;;;;;5046558;28;20455;-84
2022/07/08 00:57:38;;;;;;;40.25;5.75;;;;;;;;;;5045384;28;20050;-84
2022/07/08 01:00:06;;;;;;;31.33;5.40;;;;;;;;;;5036591;28;20080;-84
2022/07/08 01:02:33;;;;;;;28.20;6.15;;;;;;;;;;5030977;28;20053;-84
2022/07/08 01:05:00;;;;;;;39.35;5.65;;;;;;;;;;5025990;28;20084;-84
2022/07/08 01:07:28;;;;;;;34.65;5.53;;;;;;;;;;5037294;28;20132;-84
2022/07/08 01:09:55;;;;;;;27.33;5.30;;;;;;;;;;5009551;28;20498;-84
2022/07/08 01:12:22;;;;;;;39.58;6.70;;;;;;;;;;5023412;28;20081;-83
2022/07/08 01:14:50;;;;;;;34.10;5.28;;;;;;;;;;5035093;28;20121;-84
2022/07/08 01:17:17;;;;;;;26.38;4.55;;;;;;;;;;5046012;28;20100;-83
2022/07/08 01:19:44;;;;;;;22.60;4.35;;;;;;;;;;5029459;28;20077;-83
2022/07/08 01:22:12;;;;;;;29.55;4.65;;;;;;;;;;5025857;28;20057;-82
2022/07/08 01:24:39;;;;;;;31.15;4.88;;;;;;;;;;5026133;28;20115;-84
2022/07/08 01:27:06;;;;;;;24.92;5.20;;;;;;;;;;5029179;28;20132;-78
2022/07/08 01:29:34;;;;;;;30.92;4.85;;;;;;;;;;5028611;28;20129;-78
2022/07/08 01:32:02;;;;;;;37.75;4.63;;;;;;;;;;5026569;28;20132;-78
2022/07/08 01:34:29;;;;;;;30.30;5.82;;;;;;;;;;5028042;28;20132;-77
2022/07/08 01:36:56;;;;;;;25.65;4.45;;;;;;;;;;5027958;28;20057;-78
2022/07/08 01:39:24;;;;;;;31.40;5.50;;;;;;;;;;5024824;28;20104;-78
2022/07/08 01:41:51;;;;;;;25.40;4.35;;;;;;;;;;5022756;28;20069;-78
2022/07/08 01:44:18;;;;;;;33.17;4.22;;;;;;;;;;5028458;28;20057;-78
2022/07/08 01:46:46;;;;;;;29.85;4.18;;;;;;;;;;5034076;28;20061;-77
2022/07/08 01:49:14;;;;;;;30.45;4.93;;;;;;;;;;5042553;28;20088;-77
2022/07/08 01:51:42;;;;;;;24.17;4.22;;;;;;;;;;5035212;28;20079;-77
2022/07/08 01:54:09;;;;;;;23.42;4.57;;;;;;;;;;5027659;28;20057;-78
2022/07/08 01:56:44;;;;;;;35.10;4.57;;;;;;;;;;5036005;28;20128;-78
2022/07/08 01:59:11;;;;;;;27.52;4.28;;;;;;;;;;5037130;28;20126;-77
2022/07/08 02:01:39;;;;;;;26.52;3.83;;;;;;;;;;5034243;28;20427;-78
2022/07/08 02:04:06;;;;;;;24.80;4.43;;;;;;;;;;5026817;28;20053;-77
2022/07/08 02:06:33;;;;;;;23.60;4.13;;;;;;;;;;5025355;28;20065;-78
2022/07/08 02:09:01;;;;;;;30.52;5.38;;;;;;;;;;5026862;28;20099;-78
2022/07/08 02:14:15;;;;;;;31.00;4.90;;;;;;;;;;5022149;28;20072;-78
2022/07/08 02:16:42;;;;;;;28.00;4.90;;;;;;;;;;5022897;28;20071;-78
2022/07/08 02:19:10;;;;;;;27.23;4.43;;;;;;;;;;5034141;28;20046;-78
2022/07/08 02:21:37;;;;;;;23.75;3.45;;;;;;;;;;5024736;28;20077;-77
2022/07/08 02:24:04;;;;;;;17.92;3.90;;;;;;;;;;5038556;28;20060;-78
2022/07/08 02:26:32;;;;;;;24.50;4.22;;;;;;;;;;5039723;28;20088;-77
2022/07/08 02:28:59;;;;;;;24.25;4.45;;;;;;;;;;5027314;28;20053;-78
2022/07/08 02:31:27;;;;;;;22.02;3.47;;;;;;;;;;5024030;28;20579;-78
2022/07/08 02:33:54;;;;;;;23.48;3.50;;;;;;;;;;5023138;28;20042;-77
2022/07/08 02:36:21;;;;;;;22.55;4.55;;;;;;;;;;5024351;28;20609;-77
2022/07/08 02:38:49;;;;;;;19.55;3.92;;;;;;;;;;5025818;28;20081;-77
2022/07/08 02:41:16;;;;;;;33.08;4.47;;;;;;;;;;5026262;28;20812;-78
2022/07/08 02:43:57;;;;;;;21.63;3.38;;;;;;;;;;5010893;22;20056;-84
2022/07/08 02:46:24;;;;;;;23.13;4.38;;;;;;;;;;5029377;28;20125;-84
2022/07/08 02:48:53;;;;;;;26.67;4.18;;;;;;;;;;5029308;28;20478;-84
2022/07/08 02:51:21;;;;;;;22.55;3.80;;;;;;;;;;5018430;28;20529;-84
2022/07/08 02:53:48;;;;;;;33.15;4.47;;;;;;;;;;5016967;28;20085;-84
2022/07/08 02:56:15;;;;;;;26.08;3.95;;;;;;;;;;5023941;28;20050;-84
2022/07/08 02:58:43;;;;;;;28.40;4.38;;;;;;;;;;5021941;28;20131;-85
2022/07/08 03:01:10;;;;;;;27.48;4.57;;;;;;;;;;5034866;28;20049;-84
2022/07/08 03:03:37;;;;;;;22.58;4.18;;;;;;;;;;5047599;28;20053;-85
2022/07/08 03:06:05;;;;;;;30.48;5.45;;;;;;;;;;5032436;28;20137;-85
2022/07/08 03:08:32;;;;;;;40.33;4.72;;;;;;;;;;5032374;28;20057;-84
2022/07/08 03:10:59;;;;;;;26.95;4.82;;;;;;;;;;5031869;28;20089;-85
2022/07/08 03:13:27;;;;;;;26.52;4.20;;;;;;;;;;5030723;28;20061;-84
2022/07/08 03:15:54;;;;;;;17.90;3.60;;;;;;;;;;5020982;28;20077;-84
2022/07/08 03:18:22;;;;;;;26.02;5.35;;;;;;;;;;5024511;28;20085;-85
2022/07/08 03:20:49;;;;;;;17.17;3.40;;;;;;;;;;5029773;28;20100;-84
2022/07/08 03:23:16;;;;;;;38.70;3.75;;;;;;;;;;5032205;28;20112;-85
2022/07/08 03:25:44;;;;;;;28.67;4.03;;;;;;;;;;5029078;28;20132;-84
2022/07/08 03:28:11;;;;;;;26.25;4.13;;;;;;;;;;5029530;28;20049;-84
2022/07/08 03:30:39;;;;;;;32.17;4.22;;;;;;;;;;5045392;28;20091;-84
2022/07/08 03:33:07;;;;;;;22.48;4.50;;;;;;;;;;5033886;28;20115;-84
2022/07/08 03:35:34;;;;;;;20.88;3.42;;;;;;;;;;5032315;28;20045;-84
2022/07/08 03:38:01;;;;;;;30.40;4.30;;;;;;;;;;5023943;28;20520;-86
2022/07/08 03:43:21;;;;;;;41.15;4.53;;;;;;;;;;5027149;28;20134;-85
2022/07/08 03:45:49;;;;;;;28.33;4.38;;;;;;;;;;5017616;28;20045;-84
2022/07/08 03:48:16;;;;;;;21.95;3.70;;;;;;;;;;5021998;28;20569;-83
2022/07/08 03:50:44;;;;;;;18.70;3.13;;;;;;;;;;5021831;28;20132;-84
2022/07/08 03:53:11;;;;;;;16.85;3.60;;;;;;;;;;5018519;28;20125;-85
2022/07/08 03:55:38;;;;;;;21.23;3.35;;;;;;;;;;5021916;28;20593;-86
2022/07/08 03:58:05;;;;;;;24.75;4.15;;;;;;;;;;5026108;28;20128;-85
2022/07/08 04:00:33;;;;;;;33.03;4.75;;;;;;;;;;5026061;28;20057;-84
2022/07/08 04:03:05;;;;;;;26.73;3.70;;;;;;;;;;5037492;28;20087;-85
2022/07/08 04:05:32;;;;;;;27.45;4.57;;;;;;;;;;5026178;28;20080;-85
2022/07/08 04:07:59;;;;;;;20.00;3.75;;;;;;;;;;5029456;28;20104;-85
2022/07/08 04:10:27;;;;;;;16.63;4.18;;;;;;;;;;5030010;28;20592;-85
2022/07/08 04:12:54;;;;;;;21.50;4.45;;;;;;;;;;5028787;28;20045;-84
2022/07/08 04:15:22;;;;;;;21.73;3.95;;;;;;;;;;5021097;28;20046;-85
2022/07/08 04:17:50;;;;;;;21.63;3.97;;;;;;;;;;5020408;28;20124;-85
2022/07/08 04:20:17;;;;;;;24.15;4.05;;;;;;;;;;5024199;28;20085;-77
2022/07/08 04:22:45;;;;;;;23.73;4.30;;;;;;;;;;5023892;28;20049;-85
2022/07/08 04:25:12;;;;;;;17.92;3.80;;;;;;;;;;5019393;28;20112;-84
2022/07/08 04:27:39;;;;;;;18.35;3.72;;;;;;;;;;5022687;28;20108;-84
2022/07/08 04:30:07;;;;;;;20.48;3.75;;;;;;;;;;5021163;28;20129;-84
2022/07/08 04:32:34;;;;;;;21.83;3.25;;;;;;;;;;5023127;28;20136;-84
2022/07/08 04:35:02;;;;;;;25.63;3.63;;;;;;;;;;5027861;28;20128;-85
2022/07/08 04:37:29;;;;;;;12.75;2.72;;;;;;;;;;5017922;28;20080;-84
2022/07/08 04:39:56;;;;;;;23.20;3.88;;;;;;;;;;5020974;28;20077;-84
2022/07/08 04:42:24;;;;;;;19.52;3.15;;;;;;;;;;5019560;28;20072;-83
2022/07/08 04:44:51;;;;;;;23.85;4.28;;;;;;;;;;5017482;28;20540;-83
2022/07/08 04:47:18;;;;;;;17.00;3.72;;;;;;;;;;5025515;22;20049;31
2022/07/08 04:49:46;;;;;;;18.88;3.40;;;;;;;;;;5029020;28;20128;-83
2022/07/08 04:52:13;;;;;;;22.10;4.32;;;;;;;;;;5027359;28;20130;-82
2022/07/08 04:54:42;;;;;;;17.98;3.30;;;;;;;;;;5026586;28;20053;-83
2022/07/08 04:57:09;;;;;;;17.52;3.50;;;;;;;;;;5029456;28;20488;-84
2022/07/08 05:03:05;;;;;;;18.60;3.30;;;;;;;;;;5017212;23;20095;-84
2022/07/08 05:05:34;;;;;;;16.35;2.95;;;;;;;;;;5007015;28;20124;-86
2022/07/08 05:08:01;;;;;;;30.77;3.92;;;;;;;;;;5003797;28;20096;-78
2022/07/08 05:10:29;;;;;;;19.65;3.63;;;;;;;;;;4986325;28;20137;-78
2022/07/08 05:13:01;;;;;;;16.23;3.63;;;;;;;;;;5001316;28;20157;-78
2022/07/08 05:15:29;;;;;;;23.65;3.03;;;;;;;;;;5000630;28;20141;-78
2022/07/08 05:17:56;;;;;;;19.90;3.08;;;;;;;;;;4988885;28;20045;-77
2022/07/08 05:20:23;;;;;;;15.68;3.72;;;;;;;;;;5003201;28;20049;-79
2022/07/08 05:22:51;;;;;;;16.15;2.95;;;;;;;;;;5006371;28;20092;-78
2022/07/08 05:25:18;;;;;;;21.98;4.03;;;;;;;;;;5004393;28;20136;-77
2022/07/08 05:27:45;;;;;;;22.02;3.13;;;;;;;;;;5006511;28;20131;-77
2022/07/08 05:30:13;;;;;;;16.50;3.22;;;;;;;;;;5023356;28;20095;-77
2022/07/08 05:32:40;;;;;;;14.63;3.33;;;;;;;;;;5011290;28;20085;-78
2022/07/08 05:35:09;;;;;;;19.88;3.05;;;;;;;;;;5004571;28;20120;-77
2022/07/08 05:37:38;;;;;;;30.33;5.32;;;;;;;;;;5011297;28;20047;-77
2022/07/08 05:40:09;;;;;;;16.13;3.17;;;;;;;;;;5003750;28;20053;-78
2022/07/08 05:42:36;;;;;;;16.77;3.38;;;;;;;;;;5012915;28;20214;-77
2022/07/08 05:45:04;;;;;;;21.98;4.10;;;;;;;;;;5004772;28;20137;-77
2022/07/08 05:47:32;;;;;;;18.77;3.35;;;;;;;;;;5004670;28;20100;-77
2022/07/08 05:49:59;;;;;;;13.00;3.17;;;;;;;;;;5004429;28;20506;-77
2022/07/08 05:52:26;;;;;;;22.35;3.03;;;;;;;;;;5000389;28;20082;-77
2022/07/08 05:54:54;;;;;;;33.33;5.50;;;;;;;;;;5004744;28;20139;-76
2022/07/08 05:57:21;;;;;;;29.40;3.20;;;;;;;;;;5005984;28;20089;-76
2022/07/08 05:59:50;;;;;;;20.42;3.08;;;;;;;;;;5015728;28;20132;-77
2022/07/08 06:02:21;;;;;;;20.13;3.08;;;;;;;;;;5004744;28;20709;-77
2022/07/08 06:04:48;;;;;;;17.75;3.40;;;;;;;;;;5006203;28;20151;-77
2022/07/08 06:07:16;;;;;;;26.40;3.90;;;;;;;;;;4997076;28;20077;-76
2022/07/08 06:12:29;;;;;;;17.83;2.92;;;;;;;;;;5028703;22;20073;-84
2022/07/08 06:14:56;;;;;;;16.23;3.97;;;;;;;;;;5040290;28;20489;-85
2022/07/08 06:17:23;;;;;;;18.77;2.90;;;;;;;;;;5049580;28;20107;-85
2022/07/08 06:19:51;;;;;;;22.33;2.97;;;;;;;;;;5036055;28;20077;-84
2022/07/08 06:22:18;;;;;;;19.98;2.65;;;;;;;;;;5034796;28;20085;-84
2022/07/08 06:24:45;;;;;;;25.30;2.88;;;;;;;;;;5046492;28;20469;-85
2022/07/08 06:27:13;;;;;;;22.30;3.78;;;;;;;;;;5046811;28;20084;-85
2022/07/08 06:29:40;;;;;;;16.63;3.45;;;;;;;;;;5047505;28;20164;-84
2022/07/08 06:32:07;;;;;;;15.35;3.80;;;;;;;;;;5050026;28;20057;-84
2022/07/08 06:34:35;;;;;;;12.85;3.00;;;;;;;;;;5052663;28;20132;-85
2022/07/08 06:37:02;;;;;;;17.17;2.53;;;;;;;;;;5054338;28;20560;-84
2022/07/08 06:39:29;;;;;;;13.70;2.20;;;;;;;;;;5053319;28;20497;-84
2022/07/08 06:41:57;;;;;;;16.60;3.50;;;;;;;;;;5054515;28;20124;-84
2022/07/08 06:44:24;;;;;;;15.05;3.35;;;;;;;;;;5053525;28;20564;-84
2022/07/08 06:46:51;;;;;;;19.95;3.33;;;;;;;;;;5054550;28;20045;-84
2022/07/08 06:49:19;;;;;;;12.27;3.13;;;;;;;;;;5053960;28;20076;-84
2022/07/08 06:51:46;;;;;;;24.98;3.17;;;;;;;;;;5049831;28;21456;-84
2022/07/08 06:56:59;;;;;;;;;;;;;;;;;;5034324;28;20081;-84
2022/07/08 06:59:26;;;;;;;14.35;2.70;;;;;;;;;;5032904;28;19920;-83
2022/07/08 07:02:10;;;;;;;9.95;2.00;;;;;;;;;;5031776;28;20379;-85
2022/07/08 07:04:37;;;;;;;24.27;2.85;;;;;;;;;;5028500;28;20085;-84
2022/07/08 07:07:04;;;;;;;11.07;2.28;;;;;;;;;;5027932;28;20073;-84
2022/07/08 07:09:32;;;;;;;19.58;2.95;;;;;;;;;;5030397;28;20077;-83
2022/07/08 07:11:59;;;;;;;17.27;2.75;;;;;;;;;;5032076;28;20095;-84
2022/07/08 07:14:27;;;;;;;14.93;2.20;;;;;;;;;;5031772;28;20081;-85
2022/07/08 07:16:59;;;;;;;16.95;2.38;;;;;;;;;;5032845;28;20053;-85
2022/07/08 07:19:27;;;;;;;15.50;2.42;;;;;;;;;;5032827;28;20755;-84
2022/07/08 07:21:56;;;;;;;10.25;2.47;;;;;;;;;;5027759;28;20557;-85
2022/07/08 07:24:23;;;;;;;12.93;2.08;;;;;;;;;;5028871;28;20084;-85
2022/07/08 07:26:51;;;;;;;11.27;2.33;;;;;;;;;;5030489;28;20135;-85
2022/07/08 07:29:18;;;;;;;8.40;2.50;;;;;;;;;;5033875;28;20057;-83
2022/07/08 07:31:46;;;;;;;20.48;2.15;;;;;;;;;;5053582;28;20092;-85
2022/07/08 07:34:13;;;;;;;17.02;3.22;;;;;;;;;;5053128;28;20131;-85
2022/07/08 07:36:41;;;;;;;15.80;2.67;;;;;;;;;;5051682;28;20136;-86
2022/07/08 07:39:09;;;;;;;17.42;2.15;;;;;;;;;;5052954;28;20140;-84
2022/07/08 07:41:37;;;;;;;12.18;2.70;;;;;;;;;;5029143;28;20050;-85
2022/07/08 07:44:05;;;;;;;12.80;2.03;;;;;;;;;;5044696;28;20045;-85
2022/07/08 07:46:32;;;;;;;9.50;2.17;;;;;;;;;;5044781;28;20091;-86
2022/07/08 07:49:00;;;;;;;16.35;3.38;;;;;;;;;;5031390;28;20049;-85
2022/07/08 07:51:28;;;;;;;12.40;1.63;;;;;;;;;;5036830;28;20156;-85
2022/07/08 07:53:55;;;;;;;12.75;1.85;;;;;;;;;;5050602;28;20080;-85
2022/07/08 07:56:23;;;;;;;18.27;2.22;;;;;;;;;;5051929;28;20084;-84
2022/07/08 07:58:50;;;;;;;10.27;2.08;;;;;;;;;;5053307;28;20053;-83
2022/07/08 08:01:18;;;;;;;13.23;2.03;;;;;;;;;;5051268;28;20049;-83
2022/07/08 08:03:45;;;;;;;10.52;2.00;;;;;;;;;;5052466;28;20490;-84
2022/07/08 08:06:13;;;;;;;8.85;2.05;;;;;;;;;;5052542;28;20056;-84
2022/07/08 08:08:40;;;;;;;11.38;1.85;;;;;;;;;;5052622;28;20084;-81
2022/07/08 08:11:07;;;;;;;7.78;1.92;;;;;;;;;;5051194;28;20637;-82
2022/07/08 08:13:35;;;;;;;9.35;1.83;;;;;;;;;;5051251;28;20140;-82
2022/07/08 08:16:02;;;;;;;7.85;1.73;;;;;;;;;;5052200;28;20095;-83
2022/07/08 08:18:35;;;;;;;10.68;1.85;;;;;;;;;;5049194;28;20045;-82
2022/07/08 08:21:02;;;;;;;13.70;2.03;;;;;;;;;;5036901;28;20037;-83
2022/07/08 08:23:30;;;;;;;13.50;2.45;;;;;;;;;;5032739;28;20083;-82
2022/07/08 08:25:57;;;;;;;12.68;2.17;;;;;;;;;;5032715;28;20124;-82
2022/07/08 08:28:24;;;;;;;11.82;2.03;;;;;;;;;;5032261;28;20073;-82
2022/07/08 08:30:52;;;;;;;14.98;2.88;;;;;;;;;;5032382;28;20081;-84
2022/07/08 08:33:19;;;;;;;10.07;2.10;;;;;;;;;;5032496;28;20057;-82
2022/07/08 08:35:46;;;;;;;10.75;1.85;;;;;;;;;;5030693;28;20077;-84
2022/07/08 08:38:14;;;;;;;13.98;2.17;;;;;;;;;;5032136;28;20057;-82
2022/07/08 08:40:42;;;;;;;14.45;2.03;;;;;;;;;;5032284;28;20392;-83
2022/07/08 08:43:10;;;;;;;16.52;2.40;;;;;;;;;;5032150;28;20505;-83
2022/07/08 08:45:43;;;;;;;8.23;1.40;;;;;;;;;;5031906;28;20057;-84
2022/07/08 08:48:11;;;;;;;21.77;2.17;;;;;;;;;;5031766;28;20346;-83
2022/07/08 08:50:54;;;;;;;10.55;1.77;;;;;;;;;;5033968;28;20508;-85
2022/07/08 08:53:30;;;;;;;9.70;2.22;;;;;;;;;;5050700;28;20608;-83
2022/07/08 08:56:00;;;;;;;7.30;1.50;;;;;;;;;;5050814;28;20413;-84
2022/07/08 08:58:27;;;;;;;11.20;2.10;;;;;;;;;;5051337;28;20051;-83
2022/07/08 09:00:55;;;;;;;15.13;2.00;;;;;;;;;;5049711;28;20145;-83
2022/07/08 09:03:22;;;;;;;13.68;1.80;;;;;;;;;;5049844;28;20080;-83
2022/07/08 09:05:50;;;;;;;7.30;2.00;;;;;;;;;;5047556;28;20056;-85
2022/07/08 09:08:17;;;;;;;12.27;2.55;;;;;;;;;;5026916;28;20079;-87
2022/07/08 09:10:45;;;;;;;10.90;1.98;;;;;;;;;;5027070;28;20065;-85
2022/07/08 09:13:14;;;;;;;14.77;2.17;;;;;;;;;;5030623;28;20846;-86
2022/07/08 09:15:43;;;;;;;8.90;2.30;;;;;;;;;;5030177;28;20756;-85
2022/07/08 09:18:11;;;;;;;7.43;1.80;;;;;;;;;;5030993;28;20069;-87
2022/07/08 09:20:39;;;;;;;9.48;1.88;;;;;;;;;;5031275;28;20096;-86
2022/07/08 09:23:33;;;;;;;10.77;2.42;;;;;;;;;;5031092;28;20509;-85
2022/07/08 09:26:02;;;;;;;13.38;2.10;;;;;;;;;;5027292;28;20127;-85
2022/07/08 09:28:33;;;;;;;11.60;1.83;;;;;;;;;;5029994;28;20489;-85
2022/07/08 09:31:02;;;;;;;12.30;2.78;;;;;;;;;;5031067;28;20113;-85
2022/07/08 09:33:29;;;;;;;14.52;2.00;;;;;;;;;;5031418;28;20136;-85
2022/07/08 09:36:00;;;;;;;9.50;2.30;;;;;;;;;;5029977;28;20498;-85
2022/07/08 09:38:29;;;;;;;15.98;2.60;;;;;;;;;;5031357;28;20144;-85
2022/07/08 09:40:56;;;;;;;11.43;2.65;;;;;;;;;;5030903;28;20104;-84
2022/07/08 09:43:23;;;;;;;11.32;2.33;;;;;;;;;;5031639;28;20053;-85
2022/07/08 09:45:51;;;;;;;11.13;2.60;;;;;;;;;;5031310;28;20053;-84
2022/07/08 09:48:19;;;;;;;18.88;2.95;;;;;;;;;;5029937;28;20049;-85
2022/07/08 09:50:49;;;;;;;14.93;2.53;;;;;;;;;;5029353;28;20119;-85
2022/07/08 09:53:30;;;;;;;14.98;2.60;;;;;;;;;;5032231;28;20100;-85
2022/07/08 09:56:00;;;;;;;18.50;2.75;;;;;;;;;;5031142;28;20045;-85
2022/07/08 09:58:29;;;;;;;13.65;2.92;;;;;;;;;;5030126;28;20042;-84
2022/07/08 10:00:57;;;;;;;13.15;2.10;;;;;;;;;;5030875;28;20096;-85
2022/07/08 10:03:25;;;;;;;14.02;2.63;;;;;;;;;;5030914;28;20077;-84
2022/07/08 10:05:54;;;;;;;10.93;2.42;;;;;;;;;;5029929;28;20827;-85
2022/07/08 10:08:23;;;;;;;12.00;2.17;;;;;;;;;;5034867;28;20077;-85
2022/07/08 10:10:51;;;;;;;16.10;2.78;;;;;;;;;;5034717;28;20084;-84
2022/07/08 10:13:24;;;;;;;16.55;2.95;;;;;;;;;;5033503;28;20088;-85
2022/07/08 10:15:56;;;;;;;9.25;2.20;;;;;;;;;;5034717;28;20899;-84
2022/07/08 10:18:26;;;;;;;5.95;2.28;;;;;;;;;;5035069;28;20050;-85
2022/07/08 10:20:56;;;;;;;10.40;2.63;;;;;;;;;;5037918;28;20045;-85
2022/07/08 10:23:23;;;;;;;13.65;2.35;;;;;;;;;;5054574;28;20815;-85
2022/07/08 10:25:51;;;;;;;10.15;2.17;;;;;;;;;;5054401;28;20557;-84
2022/07/08 10:28:18;;;;;;;11.07;2.35;;;;;;;;;;5053142;28;20765;-83
2022/07/08 10:30:48;;;;;;;10.10;2.15;;;;;;;;;;5051248;28;20084;-84
2022/07/08 10:33:25;;;;;;;9.25;2.30;;;;;;;;;;5050517;28;20080;-84
2022/07/08 10:36:02;;;;;;;11.98;2.50;;;;;;;;;;5053081;28;20073;-84
2022/07/08 10:38:30;;;;;;;8.95;2.72;;;;;;;;;;5053211;28;20144;-84
2022/07/08 10:41:00;;;;;;;9.07;2.30;;;;;;;;;;5054070;28;20067;-85
2022/07/08 10:43:28;;;;;;;9.55;2.38;;;;;;;;;;5054633;28;20685;-84
2022/07/08 10:46:00;;;;;;;10.38;2.55;;;;;;;;;;5054095;28;20060;-84
2022/07/08 10:48:28;;;;;;;6.07;1.83;;;;;;;;;;5053182;28;20568;-84
2022/07/08 10:50:56;;;;;;;6.18;1.95;;;;;;;;;;5054264;28;20335;-84
2022/07/08 10:53:52;;;;;;;11.13;2.33;;;;;;;;;;5054172;28;20667;-85
2022/07/08 10:56:38;;;;;;;10.35;2.80;;;;;;;;;;5050784;28;20049;-84
2022/07/08 10:59:25;;;;;;;11.02;2.13;;;;;;;;;;5032960;28;20133;-84
2022/07/08 11:02:10;;;;;;;3.25;1.70;;;;;;;;;;5032468;28;20090;-84
2022/07/08 11:04:38;;;;;;;8.20;1.88;;;;;;;;;;5033117;28;20081;-86
2022/07/08 11:07:22;;;;;;;5.18;2.00;;;;;;;;;;5032252;28;20084;-83
2022/07/08 11:09:54;;;;;;;8.73;2.75;;;;;;;;;;5033622;28;20497;-83
2022/07/08 11:12:26;;;;;;;11.93;3.08;;;;;;;;;;5032637;28;20692;-84
2022/07/08 11:14:56;;;;;;;8.73;3.22;;;;;;;;;;5032698;28;20129;-84
2022/07/08 11:17:25;;;;;;;23.00;3.53;;;;;;;;;;5031668;28;20432;-84
2022/07/08 11:19:53;;;;;;;11.00;2.15;;;;;;;;;;5035072;28;20124;-84
2022/07/08 11:22:22;;;;;;;9.18;2.10;;;;;;;;;;5052174;28;20102;-84
2022/07/08 11:24:52;;;;;;;4.68;1.90;;;;;;;;;;5046191;28;20060;-84
2022/07/08 11:27:24;;;;;;;7.45;2.00;;;;;;;;;;5032770;28;20549;-83
2022/07/08 11:29:52;;;;;;;5.55;1.70;;;;;;;;;;5031803;28;20053;-84
2022/07/08 11:32:21;;;;;;;4.78;2.03;;;;;;;;;;5032810;28;20132;-84
2022/07/08 11:34:48;;;;;;;8.77;2.58;;;;;;;;;;5033009;28;20092;-84
2022/07/08 11:37:16;;;;;;;7.43;2.25;;;;;;;;;;5032811;28;20169;-84
2022/07/08 11:39:44;;;;;;;9.93;2.10;;;;;;;;;;5032831;28;20053;-84
2022/07/08 11:42:12;;;;;;;9.00;2.92;;;;;;;;;;5028263;28;20085;-75
2022/07/08 11:44:39;;;;;;;4.00;1.92;;;;;;;;;;5026453;28;20077;-74
2022/07/08 11:47:10;;;;;;;13.45;2.33;;;;;;;;;;5026503;28;20122;-74
2022/07/08 11:49:42;;;;;;;8.63;2.10;;;;;;;;;;5026947;28;20123;-74
2022/07/08 11:52:09;;;;;;;13.93;2.50;;;;;;;;;;5026298;28;20140;-74
2022/07/08 11:54:37;;;;;;;5.57;2.40;;;;;;;;;;5026911;28;20061;-74
2022/07/08 11:57:05;;;;;;;9.88;2.40;;;;;;;;;;5040022;28;20124;-74
2022/07/08 11:59:34;;;;;;;16.92;2.25;;;;;;;;;;5045190;28;20049;-74
2022/07/08 12:02:02;;;;;;;5.90;2.22;;;;;;;;;;5045265;28;20446;-74
2022/07/08 12:04:30;;;;;;;8.57;2.40;;;;;;;;;;5045343;28;20106;-74
2022/07/08 12:07:01;;;;;;;11.00;2.45;;;;;;;;;;5046811;28;20053;-74
2022/07/08 12:09:29;;;;;;;5.53;2.25;;;;;;;;;;5046661;28;20080;-75
2022/07/08 12:11:58;;;;;;;7.38;2.42;;;;;;;;;;5043323;28;20128;-75
2022/07/08 12:14:25;;;;;;;9.27;2.00;;;;;;;;;;5030803;28;20675;-74
2022/07/08 12:16:54;;;;;;;9.32;3.03;;;;;;;;;;5035633;28;20063;-74
2022/07/08 12:19:30;;;;;;;5.18;2.55;;;;;;;;;;5036993;28;20132;-74
2022/07/08 12:21:59;;;;;;;10.68;2.60;;;;;;;;;;5035616;28;20045;-74
2022/07/08 12:24:27;;;;;;;11.13;2.40;;;;;;;;;;5038495;28;20139;-74
2022/07/08 12:26:59;;;;;;;8.48;1.75;;;;;;;;;;5036502;28;21439;-74
2022/07/08 12:29:32;;;;;;;5.05;2.05;;;;;;;;;;5027706;28;20197;-73
2022/07/08 12:32:04;;;;;;;5.75;1.90;;;;;;;;;;5044400;28;20079;-74
2022/07/08 12:34:33;;;;;;;4.00;1.77;;;;;;;;;;5037462;28;20064;-73
2022/07/08 12:37:20;;;;;;;2.17;1.80;;;;;;;;;;5038796;28;20124;-74
2022/07/08 12:39:48;;;;;;;7.68;1.67;;;;;;;;;;5045913;28;20452;-73
2022/07/08 12:42:24;;;;;;;4.28;1.70;;;;;;;;;;5045797;28;20413;-74
2022/07/08 12:44:52;;;;;;;2.95;1.48;;;;;;;;;;5026004;28;20054;-73
2022/07/08 12:47:19;;;;;;;4.32;1.20;;;;;;;;;;5026484;28;20391;-74
2022/07/08 12:49:47;;;;;;;4.47;1.50;;;;;;;;;;5025566;28;20065;-74
2022/07/08 12:52:15;;;;;;;2.28;0.82;;;;;;;;;;5024640;28;20157;-73
2022/07/08 12:54:43;;;;;;;2.30;0.85;;;;;;;;;;5026003;28;20057;-73
2022/07/08 12:57:10;;;;;;;3.45;0.68;;;;;;;;;;5025620;28;20053;-73
2022/07/08 12:59:38;;;;;;;4.15;0.80;;;;;;;;;;5039343;28;20135;-73
2022/07/08 13:02:06;;;;;;;2.35;0.60;;;;;;;;;;5032408;28;20141;-74
2022/07/08 13:04:33;;;;;;;1.58;0.75;;;;;;;;;;5029751;28;20049;-73
2022/07/08 13:07:01;;;;;;;10.63;1.92;;;;;;;;;;5031412;28;20057;-74
2022/07/08 13:09:28;;;;;;;3.03;0.57;;;;;;;;;;5030453;28;20057;-74
2022/07/08 13:11:55;;;;;;;5.88;0.75;;;;;;;;;;5030669;28;20057;-75
2022/07/08 13:14:23;;;;;;;2.13;0.63;;;;;;;;;;5032236;28;20056;-75
2022/07/08 13:16:50;;;;;;;1.33;0.50;;;;;;;;;;5031165;28;20172;-74
2022/07/08 13:19:17;;;;;;;1.20;0.50;;;;;;;;;;5030563;28;20053;-75
2022/07/08 13:21:45;;;;;;;1.23;0.60;;;;;;;;;;5042158;28;20140;-75
2022/07/08 13:24:12;;;;;;;3.70;0.60;;;;;;;;;;5045518;28;20088;-74
2022/07/08 13:26:39;;;;;;;7.68;0.60;;;;;;;;;;5034185;28;20136;-75
2022/07/08 13:29:06;;;;;;;3.10;0.60;;;;;;;;;;5030896;28;20052;-75
2022/07/08 13:31:34;;;;;;;3.92;0.50;;;;;;;;;;5029168;28;20050;-75
2022/07/08 13:34:01;;;;;;;2.05;0.60;;;;;;;;;;5024810;28;20463;-75
2022/07/08 13:36:30;;;;;;;1.27;0.50;;;;;;;;;;5031305;28;20056;-75
2022/07/08 13:38:57;;;;;;;9.35;0.80;;;;;;;;;;5045016;28;20131;-75
2022/07/08 13:41:29;;;;;;;3.72;0.50;;;;;;;;;;5028827;28;20106;-75
2022/07/08 13:43:57;;;;;;;3.45;0.95;;;;;;;;;;5029761;28;20053;-74
2022/07/08 13:46:25;;;;;;;4.38;0.57;;;;;;;;;;5029217;28;20057;-73
2022/07/08 13:48:53;;;;;;;0.82;0.50;;;;;;;;;;5033080;28;20049;-74
2022/07/08 13:51:21;;;;;;;3.60;0.50;;;;;;;;;;5039085;28;20142;-75
2022/07/08 13:53:48;;;;;;;2.90;0.65;;;;;;;;;;5029134;28;20152;-76
2022/07/08 13:56:16;;;;;;;2.92;0.70;;;;;;;;;;5029655;28;20168;-75
2022/07/08 13:58:43;;;;;;;0.93;0.60;;;;;;;;;;5027832;28;20118;-75
2022/07/08 14:01:10;;;;;;;4.13;1.00;;;;;;;;;;5030702;28;20135;-75
2022/07/08 14:03:38;;;;;;;2.78;0.60;;;;;;;;;;5037387;28;20056;-76
2022/07/08 14:06:05;;;;;;;4.03;0.95;;;;;;;;;;5037639;28;20130;-75
2022/07/08 14:08:33;;;;;;;3.45;0.60;;;;;;;;;;5042244;28;20114;-75
2022/07/08 14:11:08;;;;;;;1.65;0.70;;;;;;;;;;5043515;28;20072;-74
2022/07/08 14:13:35;;;;;;;6.32;0.88;;;;;;;;;;5043404;28;20084;-75
2022/07/08 14:16:04;;;;;;;3.72;0.75;;;;;;;;;;5044374;28;20149;-75
2022/07/08 14:18:32;;;;;;;4.60;0.60;;;;;;;;;;5043179;28;20064;-75
2022/07/08 14:21:00;;;;;;;2.70;0.90;;;;;;;;;;5039389;28;20049;-74
2022/07/08 14:23:28;;;;;;;3.15;0.50;;;;;;;;;;5042671;28;20063;-75
2022/07/08 14:25:55;;;;;;;2.70;0.73;;;;;;;;;;5040265;28;20044;-75
2022/07/08 14:28:24;;;;;;;4.40;0.85;;;;;;;;;;5035295;28;20140;-75
2022/07/08 14:30:51;;;;;;;4.85;0.60;;;;;;;;;;5044369;28;20429;-75
2022/07/08 14:33:21;;;;;;;4.13;0.85;;;;;;;;;;5038298;28;20414;-76
2022/07/08 14:35:49;;;;;;;3.33;0.70;;;;;;;;;;5034124;28;20097;-75
2022/07/08 14:38:16;;;;;;;0.90;0.60;;;;;;;;;;5023799;28;20122;-75
2022/07/08 14:40:45;;;;;;;1.15;0.52;;;;;;;;;;5024089;28;20053;-75
2022/07/08 14:43:14;;;;;;;1.98;0.35;;;;;;;;;;5024091;28;20056;-75
2022/07/08 14:45:42;;;;;;;4.15;0.90;;;;;;;;;;5028472;28;20128;-75
2022/07/08 14:48:09;;;;;;;6.15;1.00;;;;;;;;;;5051367;28;20088;-75
2022/07/08 14:50:43;;;;;;;4.60;0.80;;;;;;;;;;5038515;28;20052;-75
2022/07/08 14:53:10;;;;;;;2.65;0.60;;;;;;;;;;5041208;28;20582;-75
2022/07/08 14:55:37;;;;;;;3.35;0.70;;;;;;;;;;5038897;28;20088;-75